createdAt,value
2022-08-16T00:01:02.421Z,98945.97
2022-08-16T00:03:32.267Z,98943.94
2022-08-16T00:06:04.678Z,98941.06
2022-08-16T00:08:36.886Z,98939.91
2022-08-16T00:11:15.304Z,98942.03
2022-08-16T00:13:53.726Z,98947.97
2022-08-16T00:17:06.637Z,98952.22
2022-08-16T00:19:16.982Z,98953.59
2022-08-16T00:21:44.234Z,98946.97
2022-08-16T00:24:12.701Z,98943.53
2022-08-16T00:26:43.782Z,98944.22
2022-08-16T00:29:15.682Z,98947.53
2022-08-16T00:31:59.259Z,98945.97
2022-08-16T00:34:43.951Z,98949.53
2022-08-16T00:37:12.850Z,98951.31
2022-08-16T00:39:44.669Z,98950.94
2022-08-16T00:42:11.858Z,98958.75
2022-08-16T00:44:40.004Z,98960.41
2022-08-16T00:47:10.555Z,98956.84
2022-08-16T00:49:39.553Z,98961.22
2022-08-16T00:52:29.996Z,98955.88
2022-08-16T00:54:59.008Z,98952.09
2022-08-16T00:57:27.592Z,98958.44
2022-08-16T01:00:20.265Z,98948.47
2022-08-16T01:02:50.950Z,98951.19
2022-08-16T01:05:19.485Z,98949.75
2022-08-16T01:07:53.159Z,98948.31
2022-08-16T01:10:32.048Z,98946.03
2022-08-16T01:13:23.503Z,98953.63
2022-08-16T01:16:10.475Z,98959.97
2022-08-16T01:18:46.363Z,98967.56
2022-08-16T01:21:24.752Z,98978.53
2022-08-16T01:24:51.835Z,98976.81
2022-08-16T01:27:17.397Z,98976.88
2022-08-16T01:30:01.510Z,98979.81
2022-08-16T01:32:33.690Z,98971.50
2022-08-16T01:35:02.950Z,98967.78
2022-08-16T01:37:35.936Z,98971.00
2022-08-16T01:40:07.133Z,98975.44
2022-08-16T01:42:35.205Z,98975.91
2022-08-16T01:45:02.145Z,98986.41
2022-08-16T01:47:29.854Z,98986.78
2022-08-16T01:50:41.759Z,98983.91
2022-08-16T01:52:47.437Z,98985.19
2022-08-16T01:55:17.399Z,98990.84
2022-08-16T01:57:53.584Z,98980.06
2022-08-16T02:00:29.322Z,98977.34
2022-08-16T02:02:57.040Z,98979.66
2022-08-16T02:05:24.014Z,98981.50
2022-08-16T02:07:51.927Z,98983.22
2022-08-16T02:10:19.358Z,98980.72
2022-08-16T02:12:51.629Z,98979.72
2022-08-16T02:15:25.920Z,98983.34
2022-08-16T02:17:54.274Z,98975.44
2022-08-16T02:20:26.309Z,98975.44
2022-08-16T02:22:55.915Z,98987.38
2022-08-16T02:25:22.783Z,98972.47
2022-08-16T02:27:51.125Z,98970.22
2022-08-16T02:30:37.964Z,98967.72
2022-08-16T02:33:11.880Z,98965.44
2022-08-16T02:35:49.819Z,98966.50
2022-08-16T02:38:22.483Z,98962.72
2022-08-16T02:40:49.029Z,98959.16
2022-08-16T02:43:16.028Z,98965.59
2022-08-16T02:45:42.708Z,98970.66
2022-08-16T02:48:29.190Z,98977.38
2022-08-16T02:51:06.236Z,98969.38
2022-08-16T02:53:43.431Z,98976.50
2022-08-16T02:56:11.225Z,98988.44
2022-08-16T02:58:39.048Z,98983.81
2022-08-16T03:01:07.209Z,98984.03
2022-08-16T03:04:39.566Z,98990.53
2022-08-16T03:06:41.934Z,98986.59
2022-08-16T03:09:13.748Z,98982.22
2022-08-16T03:11:42.241Z,98983.06
2022-08-16T03:14:08.887Z,98985.38
2022-08-16T03:16:58.747Z,98996.47
2022-08-16T03:19:25.365Z,99001.88
2022-08-16T03:21:51.965Z,99007.75
2022-08-16T03:24:27.553Z,99019.03
2022-08-16T03:26:58.919Z,99012.59
2022-08-16T03:29:32.007Z,99013.72
2022-08-16T03:32:01.213Z,99012.22
2022-08-16T03:34:28.986Z,99015.53
2022-08-16T03:36:57.029Z,99010.69
2022-08-16T03:39:23.800Z,99018.41
2022-08-16T03:41:59.289Z,99025.34
2022-08-16T03:44:43.465Z,99023.09
2022-08-16T03:47:11.891Z,99030.69
2022-08-16T03:49:38.738Z,99020.00
2022-08-16T03:52:05.922Z,99012.94
2022-08-16T03:54:32.646Z,99006.25
2022-08-16T03:57:02.821Z,99017.56
2022-08-16T03:59:31.881Z,99029.06
2022-08-16T04:02:01.118Z,99033.75
2022-08-16T04:04:33.268Z,99036.78
2022-08-16T04:07:06.961Z,99043.09
2022-08-16T04:09:35.463Z,99037.66
2022-08-16T04:12:10.842Z,99042.66
2022-08-16T04:14:52.734Z,99049.16
2022-08-16T04:17:20.930Z,99042.22
2022-08-16T04:19:47.599Z,99044.91
2022-08-16T04:22:19.550Z,99051.19
2022-08-16T04:24:54.337Z,99046.78
2022-08-16T04:27:22.436Z,99054.13
2022-08-16T04:29:52.216Z,99057.66
2022-08-16T04:32:19.860Z,99055.03
2022-08-16T04:34:46.639Z,99066.75
2022-08-16T04:37:13.959Z,99057.09
2022-08-16T04:39:46.866Z,99064.66
2022-08-16T04:42:17.975Z,99074.25
2022-08-16T04:44:54.190Z,99072.97
2022-08-16T04:47:24.611Z,99075.91
2022-08-16T04:49:52.269Z,99089.19
2022-08-16T04:52:33.936Z,99084.56
2022-08-16T04:55:12.055Z,99088.34
2022-08-16T04:57:39.620Z,99090.56
2022-08-16T05:00:30.354Z,99096.63
2022-08-16T05:02:58.879Z,99092.59
2022-08-16T05:05:32.766Z,99103.22
2022-08-16T05:08:01.186Z,99108.00
2022-08-16T05:10:47.651Z,99103.25
2022-08-16T05:13:15.495Z,99096.00
2022-08-16T05:15:42.231Z,99104.69
2022-08-16T05:18:15.819Z,99103.34
2022-08-16T05:20:54.263Z,99113.03
2022-08-16T05:23:31.775Z,99108.19
2022-08-16T05:25:59.699Z,99113.63
2022-08-16T05:28:30.902Z,99112.56
2022-08-16T05:31:04.626Z,99114.56
2022-08-16T05:33:33.438Z,99121.03
2022-08-16T05:36:00.498Z,99126.84
2022-08-16T05:38:39.012Z,99130.78
2022-08-16T05:41:06.904Z,99131.31
2022-08-16T05:43:43.543Z,99129.56
2022-08-16T05:46:28.752Z,99134.03
2022-08-16T05:49:03.772Z,99128.41
2022-08-16T05:51:37.726Z,99141.72
2022-08-16T05:54:07.499Z,99144.03
2022-08-16T05:56:34.221Z,99159.78
2022-08-16T05:59:06.224Z,99158.28
2022-08-16T06:01:38.535Z,99169.94
2022-08-16T06:04:13.459Z,99169.97
2022-08-16T06:06:57.296Z,99167.50
2022-08-16T06:09:42.649Z,99175.44
2022-08-16T06:12:12.276Z,99179.06
2022-08-16T06:14:39.997Z,99183.03
2022-08-16T06:17:07.242Z,99189.56
2022-08-16T06:19:35.622Z,99195.19
2022-08-16T06:22:02.415Z,99178.34
2022-08-16T06:24:53.420Z,99180.94
2022-08-16T06:27:15.467Z,99209.47
2022-08-16T06:29:44.677Z,99221.50
2022-08-16T06:32:26.193Z,99228.38
2022-08-16T06:34:56.963Z,99235.91
2022-08-16T06:37:37.006Z,99230.78
2022-08-16T06:40:12.982Z,99231.78
2022-08-16T06:42:47.641Z,99234.88
2022-08-16T06:45:24.025Z,99232.69
2022-08-16T06:47:53.466Z,99230.03
2022-08-16T06:50:29.311Z,99236.63
2022-08-16T06:53:08.737Z,99248.22
2022-08-16T06:55:38.361Z,99248.97
2022-08-16T06:58:08.375Z,99250.56
2022-08-16T07:00:37.540Z,99261.28
2022-08-16T07:03:27.781Z,99264.59
2022-08-16T07:05:53.899Z,99271.09
2022-08-16T07:08:20.853Z,99267.41
2022-08-16T07:10:47.360Z,99274.06
2022-08-16T07:13:26.525Z,99269.00
2022-08-16T07:16:02.640Z,99274.84
2022-08-16T07:18:29.121Z,99275.91
2022-08-16T07:21:01.809Z,99269.56
2022-08-16T07:23:34.986Z,99265.84
2022-08-16T07:26:08.375Z,99278.53
2022-08-16T07:28:35.455Z,99281.00
2022-08-16T07:31:03.227Z,99281.81
2022-08-16T07:33:51.749Z,99291.72
2022-08-16T07:36:22.634Z,99288.94
2022-08-16T07:38:49.969Z,99291.88
2022-08-16T07:41:16.903Z,99292.50
2022-08-16T07:43:43.737Z,99298.22
2022-08-16T07:46:39.671Z,99296.03
2022-08-16T07:49:02.371Z,99293.41
2022-08-16T07:51:35.542Z,99293.09
2022-08-16T07:54:09.370Z,99295.22
2022-08-16T07:56:37.602Z,99298.75
2022-08-16T07:59:07.574Z,99293.16
2022-08-16T08:01:34.688Z,99293.22
2022-08-16T08:04:02.580Z,99296.25
2022-08-16T08:06:31.247Z,99301.53
2022-08-16T08:08:59.478Z,99301.94
2022-08-16T08:11:28.009Z,99309.41
2022-08-16T08:13:56.714Z,99291.25
2022-08-16T08:16:30.546Z,99297.78
2022-08-16T08:19:02.281Z,99299.78
2022-08-16T08:21:58.314Z,99298.81
2022-08-16T08:24:18.384Z,99298.78
2022-08-16T08:26:50.001Z,99299.16
2022-08-16T08:29:22.806Z,99305.84
2022-08-16T08:31:52.489Z,99308.00
2022-08-16T08:34:21.120Z,99313.09
2022-08-16T08:36:48.906Z,99316.19
2022-08-16T08:39:21.359Z,99309.13
2022-08-16T08:41:49.468Z,99314.09
2022-08-16T08:44:28.387Z,99314.00
2022-08-16T08:47:00.199Z,99309.88
2022-08-16T08:49:46.673Z,99312.22
2022-08-16T08:52:34.097Z,99301.09
2022-08-16T08:55:03.301Z,99301.66
2022-08-16T08:57:43.890Z,99306.75
2022-08-16T09:00:13.650Z,99304.47
2022-08-16T09:02:42.828Z,99301.19
2022-08-16T09:05:14.866Z,99306.13
2022-08-16T09:08:00.172Z,99304.53
2022-08-16T09:10:29.392Z,99300.97
2022-08-16T09:12:56.716Z,99305.41
2022-08-16T09:15:23.968Z,99307.94
2022-08-16T09:17:53.620Z,99310.88
2022-08-16T09:20:23.698Z,99310.66
2022-08-16T09:22:52.636Z,99309.75
2022-08-16T09:25:25.709Z,99307.28
2022-08-16T09:27:57.261Z,99313.44
2022-08-16T09:30:43.408Z,99303.88
2022-08-16T09:33:12.540Z,99307.13
2022-08-16T09:35:42.739Z,99303.16
2022-08-16T09:38:12.281Z,99303.31
2022-08-16T09:40:43.354Z,99299.13
2022-08-16T09:43:37.758Z,99293.97
2022-08-16T09:45:59.047Z,99292.25
2022-08-16T09:48:44.327Z,99288.84
2022-08-16T09:51:13.356Z,99291.41
2022-08-16T09:53:41.199Z,99283.25
2022-08-16T09:56:23.001Z,99286.41
2022-08-16T09:59:03.712Z,99285.34
2022-08-16T10:01:33.519Z,99284.56
2022-08-16T10:04:02.708Z,99274.31
2022-08-16T10:06:33.330Z,99286.66
2022-08-16T10:09:05.247Z,99277.09
2022-08-16T10:11:55.322Z,99275.50
2022-08-16T10:14:24.873Z,99278.00
2022-08-16T10:17:05.007Z,99283.06
2022-08-16T10:19:32.383Z,99275.13
2022-08-16T10:21:59.814Z,99273.06
2022-08-16T10:24:32.389Z,99274.34
2022-08-16T10:27:18.632Z,99273.75
2022-08-16T10:29:59.386Z,99274.38
2022-08-16T10:32:30.374Z,99274.03
2022-08-16T10:34:57.472Z,99280.19
2022-08-16T10:37:32.722Z,99273.66
2022-08-16T10:40:04.039Z,99274.03
2022-08-16T10:42:30.987Z,99263.75
2022-08-16T10:44:57.423Z,99273.00
2022-08-16T10:47:23.947Z,99272.16
2022-08-16T10:49:51.192Z,99271.75
2022-08-16T10:52:18.183Z,99273.84
2022-08-16T10:57:32.936Z,99269.31
2022-08-16T11:00:01.194Z,99265.00
2022-08-16T11:03:04.738Z,99260.94
2022-08-16T11:05:16.426Z,99256.59
2022-08-16T11:07:52.484Z,99255.47
2022-08-16T11:13:57.298Z,99268.03
2022-08-16T11:19:06.120Z,99251.69
2022-08-16T11:22:22.925Z,99262.19
2022-08-16T11:24:41.919Z,99256.59
2022-08-16T11:27:24.183Z,99260.84
2022-08-16T11:29:59.554Z,99256.94
2022-08-16T11:32:31.890Z,99248.72
2022-08-16T11:35:13.406Z,99258.31
2022-08-16T11:41:00.228Z,99247.50
2022-08-16T11:43:30.561Z,99244.47
2022-08-16T11:45:59.893Z,99241.38
2022-08-16T11:48:47.782Z,99239.06
2022-08-16T11:51:14.382Z,99238.00
2022-08-16T11:53:40.923Z,99237.50
2022-08-16T11:56:08.296Z,99236.78
2022-08-16T11:58:39.417Z,99242.09
2022-08-16T12:01:08.039Z,99243.34
2022-08-16T12:03:38.058Z,99243.06
2022-08-16T12:06:24.618Z,99239.97
2022-08-16T12:08:55.543Z,99241.25
2022-08-16T12:11:22.375Z,99237.03
2022-08-16T12:13:49.877Z,99222.34
2022-08-16T12:16:20.613Z,99236.41
2022-08-16T12:21:19.631Z,99225.91
2022-08-16T12:23:46.217Z,99225.81
2022-08-16T12:26:13.091Z,99227.25
2022-08-16T12:28:54.489Z,99224.59
2022-08-16T12:31:22.924Z,99223.81
2022-08-16T12:33:50.752Z,99219.72
2022-08-16T12:36:21.453Z,99218.63
2022-08-16T12:38:53.176Z,99211.47
2022-08-16T12:41:25.525Z,99214.75
2022-08-16T12:43:52.717Z,99216.44
2022-08-16T12:46:24.548Z,99204.34
2022-08-16T12:49:00.110Z,99207.78
2022-08-16T12:51:58.400Z,99215.78
2022-08-16T12:54:23.597Z,99211.41
2022-08-16T12:56:50.413Z,99207.00
2022-08-16T12:59:20.334Z,99209.50
2022-08-16T13:01:50.530Z,99209.34
2022-08-16T13:04:24.606Z,99205.09
2022-08-16T13:06:52.330Z,99195.56
2022-08-16T13:09:26.611Z,99203.19
2022-08-16T13:12:04.402Z,99203.88
2022-08-16T13:14:40.046Z,99207.56
2022-08-16T13:17:18.552Z,99203.28
2022-08-16T13:22:32.839Z,99200.75
2022-08-16T13:24:59.432Z,99201.13
2022-08-16T13:27:59.055Z,99206.41
2022-08-16T13:30:35.614Z,99198.06
2022-08-16T13:33:00.435Z,99203.72
2022-08-16T13:35:27.813Z,99208.22
2022-08-16T13:38:01.351Z,99203.53
2022-08-16T13:40:27.902Z,99198.75
2022-08-16T13:42:54.435Z,99202.63
2022-08-16T13:45:20.961Z,99198.50
2022-08-16T13:47:48.623Z,99198.41
2022-08-16T13:50:31.471Z,99203.63
2022-08-16T13:53:07.376Z,99204.69
2022-08-16T13:55:34.701Z,99199.84
2022-08-16T13:58:37.118Z,99202.81
2022-08-16T14:00:49.153Z,99198.63
2022-08-16T14:03:21.098Z,99194.00
2022-08-16T14:05:47.714Z,99184.78
2022-08-16T14:08:14.300Z,99191.91
2022-08-16T14:10:41.063Z,99179.78
2022-08-16T14:13:07.573Z,99188.91
2022-08-16T14:15:46.756Z,99190.75
2022-08-16T14:18:17.487Z,99189.59
2022-08-16T14:20:48.582Z,99187.59
2022-08-16T14:23:17.889Z,99187.38
2022-08-16T14:25:54.358Z,99179.91
2022-08-16T14:28:21.913Z,99180.44
2022-08-16T14:30:50.558Z,99180.94
2022-08-16T14:33:17.975Z,99177.69
2022-08-16T14:35:50.524Z,99170.59
2022-08-16T14:38:19.191Z,99168.13
2022-08-16T14:40:55.487Z,99178.47
2022-08-16T14:43:23.780Z,99174.31
2022-08-16T14:45:50.624Z,99169.47
2022-08-16T14:48:24.651Z,99165.44
2022-08-16T14:50:52.739Z,99162.34
2022-08-16T14:53:19.280Z,99163.28
2022-08-16T14:55:46.157Z,99173.16
2022-08-16T14:58:19.386Z,99170.31
2022-08-16T15:00:47.860Z,99173.16
2022-08-16T15:03:17.725Z,99164.78
2022-08-16T15:05:44.353Z,99161.41
2022-08-16T15:08:11.218Z,99161.06
2022-08-16T15:10:38.935Z,99167.16
2022-08-16T15:13:09.558Z,99159.09
2022-08-16T15:15:37.828Z,99163.38
2022-08-16T15:18:06.248Z,99165.16
2022-08-16T15:20:38.509Z,99169.94
2022-08-16T15:23:08.430Z,99185.38
2022-08-16T15:25:41.466Z,99177.47
2022-08-16T15:28:24.067Z,99176.66
2022-08-16T15:31:00.580Z,99179.91
2022-08-16T15:33:32.184Z,99176.84
2022-08-16T15:35:59.356Z,99181.94
2022-08-16T15:38:54.602Z,99176.34
2022-08-16T15:41:38.968Z,99183.75
2022-08-16T15:44:12.429Z,99181.63
2022-08-16T15:46:56.271Z,99181.78
2022-08-16T15:49:37.047Z,99179.78
2022-08-16T15:52:07.866Z,99178.97
2022-08-16T15:54:38.112Z,99180.97
2022-08-16T15:57:24.185Z,99178.31
2022-08-16T15:59:52.546Z,99187.38
2022-08-16T16:02:29.664Z,99181.09
2022-08-16T16:05:01.903Z,99186.28
2022-08-16T16:07:30.100Z,99184.72
2022-08-16T16:09:58.317Z,99189.97
2022-08-16T16:12:51.308Z,99190.19
2022-08-16T16:15:16.449Z,99178.91
2022-08-16T16:17:43.980Z,99184.75
2022-08-16T16:20:17.722Z,99187.22
2022-08-16T16:22:44.580Z,99186.81
2022-08-16T16:25:11.487Z,99182.84
2022-08-16T16:27:38.380Z,99184.16
2022-08-16T16:30:18.277Z,99184.16
2022-08-16T16:32:52.179Z,99178.34
2022-08-16T16:35:18.778Z,99182.59
2022-08-16T16:37:52.062Z,99179.47
2022-08-16T16:40:28.931Z,99183.00
2022-08-16T16:42:59.996Z,99183.38
2022-08-16T16:45:34.902Z,99179.97
2022-08-16T16:48:12.313Z,99178.59
2022-08-16T16:50:44.619Z,99174.59
2022-08-16T16:53:17.466Z,99183.50
2022-08-16T16:55:52.280Z,99189.63
2022-08-16T16:58:43.390Z,99190.34
2022-08-16T17:01:20.438Z,99196.44
2022-08-16T17:03:53.478Z,99194.16
2022-08-16T17:06:20.580Z,99199.03
2022-08-16T17:08:47.770Z,99200.81
2022-08-16T17:11:17.944Z,99199.84
2022-08-16T17:13:44.645Z,99199.72
2022-08-16T17:16:18.438Z,99206.75
2022-08-16T17:19:14.756Z,99198.09
2022-08-16T17:21:34.405Z,99204.81
2022-08-16T17:24:04.252Z,99203.53
2022-08-16T17:26:49.129Z,99202.38
2022-08-16T17:29:23.491Z,99202.16
2022-08-16T17:32:02.583Z,99209.53
2022-08-16T17:34:50.657Z,99205.28
2022-08-16T17:37:17.892Z,99203.25
2022-08-16T17:40:05.956Z,99200.84
2022-08-16T17:42:33.608Z,99201.34
2022-08-16T17:45:00.556Z,99203.16
2022-08-16T17:47:27.176Z,99206.78
2022-08-16T17:49:53.718Z,99215.97
2022-08-16T17:52:20.209Z,99209.72
2022-08-16T17:54:46.756Z,99211.25
2022-08-16T17:57:13.534Z,99219.38
2022-08-16T17:59:43.488Z,99218.41
2022-08-16T18:02:44.199Z,99218.97
2022-08-16T18:04:56.498Z,99232.06
2022-08-16T18:07:22.981Z,99231.06
2022-08-16T18:09:50.581Z,99235.28
2022-08-16T18:12:51.158Z,99240.88
2022-08-16T18:15:11.654Z,99243.09
2022-08-16T18:17:38.213Z,99244.25
2022-08-16T18:20:29.006Z,99250.94
2022-08-16T18:23:06.980Z,99246.53
2022-08-16T18:25:34.854Z,99258.16
2022-08-16T18:28:01.442Z,99262.84
2022-08-16T18:30:27.977Z,99261.47
2022-08-16T18:32:54.592Z,99260.38
2022-08-16T18:35:21.327Z,99249.63
2022-08-16T18:37:48.402Z,99257.63
2022-08-16T18:40:15.323Z,99258.72
2022-08-16T18:42:52.983Z,99264.25
2022-08-16T18:45:19.426Z,99270.31
2022-08-16T18:47:45.860Z,99274.16
2022-08-16T18:50:12.527Z,99274.16
2022-08-16T18:52:48.327Z,99275.25
2022-08-16T18:55:15.087Z,99281.59
2022-08-16T18:57:42.253Z,99281.06
2022-08-16T19:00:12.297Z,99285.75
2022-08-16T19:02:56.018Z,99283.00
2022-08-16T19:05:27.529Z,99284.09
2022-08-16T19:07:54.001Z,99281.59
2022-08-16T19:10:22.700Z,99287.13
2022-08-16T19:12:49.715Z,99282.16
2022-08-16T19:15:21.143Z,99292.66
2022-08-16T19:17:48.015Z,99291.81
2022-08-16T19:20:18.464Z,99294.03
2022-08-16T19:23:05.114Z,99301.22
2022-08-16T19:25:46.954Z,99299.81
2022-08-16T19:28:49.281Z,99309.97
2022-08-16T19:31:04.507Z,99306.09
2022-08-16T19:33:31.185Z,99310.53
2022-08-16T19:35:57.694Z,99307.75
2022-08-16T19:38:24.194Z,99315.22
2022-08-16T19:40:50.836Z,99321.50
2022-08-16T19:43:17.437Z,99319.06
2022-08-16T19:45:46.113Z,99321.00
2022-08-16T19:48:12.974Z,99316.56
2022-08-16T19:50:39.564Z,99322.59
2022-08-16T19:53:12.340Z,99329.25
2022-08-16T19:55:45.805Z,99326.22
2022-08-16T19:58:15.271Z,99329.53
2022-08-16T20:00:43.237Z,99329.78
2022-08-16T20:03:13.505Z,99339.16
2022-08-16T20:05:41.875Z,99336.94
2022-08-16T20:08:11.187Z,99332.50
2022-08-16T20:10:39.777Z,99347.13
2022-08-16T20:13:15.031Z,99344.91
2022-08-16T20:15:42.776Z,99347.38
2022-08-16T20:18:21.496Z,99354.25
2022-08-16T20:20:52.883Z,99358.94
2022-08-16T20:23:24.496Z,99354.78
2022-08-16T20:25:55.463Z,99358.91
2022-08-16T20:28:33.412Z,99362.72
2022-08-16T20:31:09.988Z,99356.13
2022-08-16T20:33:36.619Z,99359.44
2022-08-16T20:36:03.985Z,99356.13
2022-08-16T20:38:31.188Z,99360.75
2022-08-16T20:40:57.678Z,99353.03
2022-08-16T20:43:24.152Z,99349.91
2022-08-16T20:45:50.664Z,99351.56
2022-08-16T20:48:17.215Z,99347.41
2022-08-16T20:50:43.886Z,99362.53
2022-08-16T20:53:11.106Z,99360.88
2022-08-16T20:55:39.956Z,99356.94
2022-08-16T20:58:06.437Z,99348.94
2022-08-16T21:00:33.597Z,99357.78
2022-08-16T21:03:01.524Z,99359.69
2022-08-16T21:05:31.299Z,99354.97
2022-08-16T21:07:58.791Z,99353.31
2022-08-16T21:10:26.963Z,99352.69
2022-08-16T21:12:56.236Z,99350.47
2022-08-16T21:15:25.350Z,99353.47
2022-08-16T21:17:52.239Z,99360.06
2022-08-16T21:20:20.025Z,99363.34
2022-08-16T21:22:54.943Z,99352.34
2022-08-16T21:25:23.271Z,99359.19
2022-08-16T21:28:40.793Z,99345.94
2022-08-16T21:30:38.513Z,99348.41
2022-08-16T21:33:07.808Z,99350.53
2022-08-16T21:35:34.983Z,99356.31
2022-08-16T21:38:29.676Z,99358.78
2022-08-16T21:40:48.466Z,99363.41
2022-08-16T21:43:20.229Z,99366.47
2022-08-16T21:45:47.721Z,99363.19
2022-08-16T21:48:14.349Z,99359.47
2022-08-16T21:50:42.619Z,99363.97
2022-08-16T21:53:11.835Z,99363.63
2022-08-16T21:55:40.308Z,99358.63
2022-08-16T21:58:07.068Z,99357.47
2022-08-16T22:00:34.686Z,99357.47
2022-08-16T22:03:03.430Z,99362.38
2022-08-16T22:05:34.242Z,99354.09
2022-08-16T22:08:01.673Z,99352.09
2022-08-16T22:11:07.159Z,99358.13
2022-08-16T22:13:26.544Z,99358.34
2022-08-16T22:15:53.770Z,99358.13
2022-08-16T22:18:20.686Z,99360.16
2022-08-16T22:20:47.996Z,99367.59
2022-08-16T22:23:18.500Z,99367.59
2022-08-16T22:25:46.927Z,99368.66
2022-08-16T22:28:13.938Z,99366.63
2022-08-16T22:30:40.934Z,99377.28
2022-08-16T22:33:27.318Z,99371.97
2022-08-16T22:35:56.359Z,99379.91
2022-08-16T22:38:54.324Z,99379.00
2022-08-16T22:41:09.915Z,99383.63
2022-08-16T22:43:36.410Z,99387.97
2022-08-16T22:46:02.974Z,99381.31
2022-08-16T22:48:30.921Z,99384.13
2022-08-16T22:51:05.775Z,99381.81
2022-08-16T22:53:32.345Z,99381.19
2022-08-16T22:55:58.759Z,99382.13
2022-08-16T22:58:34.211Z,99385.88
2022-08-16T23:01:05.906Z,99380.59
2022-08-16T23:03:32.792Z,99385.94
2022-08-16T23:06:00.454Z,99375.22
2022-08-16T23:08:38.337Z,99373.50
2022-08-16T23:11:15.026Z,99371.84
2022-08-16T23:13:50.033Z,99372.81
2022-08-16T23:16:33.310Z,99381.72
2022-08-16T23:19:06.789Z,99373.94
2022-08-16T23:21:35.318Z,99377.66
2022-08-16T23:24:03.261Z,99379.81
2022-08-16T23:26:46.563Z,99367.69
2022-08-16T23:29:23.820Z,99376.09
2022-08-16T23:31:56.169Z,99373.53
2022-08-16T23:34:23.441Z,99367.44
2022-08-16T23:36:50.175Z,99360.22
2022-08-16T23:39:17.238Z,99361.63
2022-08-16T23:41:44.856Z,99365.63
2022-08-16T23:44:57.520Z,99368.28
2022-08-16T23:46:58.964Z,99360.56
2022-08-16T23:50:02.623Z,99368.19
2022-08-16T23:52:12.095Z,99364.78
2022-08-16T23:54:38.580Z,99350.69
2022-08-16T23:57:05.221Z,99356.25
2022-08-16T23:59:35.943Z,99353.41
